CYZX

CFB Greenwood Airport

Greenwood, Nova Scotia, Canada
METAR CYZX 180600Z 04003KT 15SM OVC100 M06/M12 A3026 RMK AC8 SLP250
Observed Flight Rules
Feb-18 @ 06:00 UTC (an hour ago) Visual Flight Rules
Wind Visibility Clouds
40° at 3 knots 15 miles
  • Overcast at 10,000' AGL
Temperatures Readings
Current -6°C / 21°F
Dewpoint -12°C / 10°F
Humidity 63%
Altimeter 30.26" Hg
Pressure 1025 hPa
Elevation 28
METAR CYZX 180600Z 04003KT 15SM OVC100 M06/M12 A3026 RMK AC8 SLP250
Observed Flight Rules
Feb-18 @ 06:00 UTC
(an hour ago)
VFR
Wind Visibility
40° at 3 knots 15 miles
Clouds
  • Overcast at 10,000' AGL
Temperature Dewpoint
-6°C / 21°F -12°C / 10°F
Humidity Altimeter Pressure
63% 30.26" Hg 1025 hPa